Terminal Aerodrome Forecast
Issued by NWS

Home | Current Version | Previous Version | Text Only | Print | Product List | Glossary On
Versions: 1 2 3 4 5 6 7 8 9 10 11 12 13 14 15 16 17 18 19 20 21 22 23
000
FTUS43 KDMX 211215 AAA
TAFMCW
TAF AMD
KMCW 211215Z 2112/2212 07005KT P6SM SCT050 BKN180
      TEMPO 2112/2114 BKN015
     FM211500 11010KT P6SM SCT050
     FM211700 15012KT P6SM SCT080
     FM220400 17010KT P6SM SCT200 WS016/21045KT=

USA.gov is the U.S. government's official web portal to all federal, state and local government web resources and services.